createdAt,value
2017-12-14T00:00:15.964Z,3.40
2017-12-14T00:02:44.471Z,3.40
2017-12-14T00:05:13.695Z,3.40
2017-12-14T00:07:42.213Z,3.40
2017-12-14T00:10:09.992Z,3.40
2017-12-14T00:12:38.684Z,3.40
2017-12-14T00:15:07.240Z,3.50
2017-12-14T00:17:35.751Z,3.50
2017-12-14T00:20:04.180Z,3.50
2017-12-14T00:22:32.614Z,3.50
2017-12-14T00:25:01.143Z,3.50
2017-12-14T00:27:29.378Z,3.50
2017-12-14T00:29:57.811Z,3.50
2017-12-14T00:32:26.240Z,3.60
2017-12-14T00:34:54.672Z,3.60
2017-12-14T00:37:23.103Z,3.60
2017-12-14T00:39:51.556Z,3.70
2017-12-14T00:42:19.967Z,3.70
2017-12-14T00:44:49.172Z,3.80
2017-12-14T00:47:18.037Z,3.80
2017-12-14T00:49:46.475Z,3.70
2017-12-14T00:52:14.559Z,3.80
2017-12-14T00:54:43.005Z,3.80
2017-12-14T00:57:12.212Z,3.80
2017-12-14T00:59:40.700Z,3.80
2017-12-14T01:02:09.505Z,3.90
2017-12-14T01:04:37.935Z,3.80
2017-12-14T01:07:06.371Z,3.90
2017-12-14T01:09:34.823Z,3.90
2017-12-14T01:12:04.016Z,3.90
2017-12-14T01:14:33.310Z,3.90
2017-12-14T01:17:02.504Z,3.90
2017-12-14T01:19:30.942Z,3.90
2017-12-14T01:21:59.359Z,4.00
2017-12-14T01:24:27.789Z,4.00
2017-12-14T01:26:56.222Z,4.10
2017-12-14T01:29:24.658Z,4.00
2017-12-14T01:31:53.089Z,4.00
2017-12-14T01:34:21.560Z,4.00
2017-12-14T01:36:49.990Z,4.00
2017-12-14T01:39:18.414Z,4.10
2017-12-14T01:41:46.842Z,4.10
2017-12-14T01:44:16.024Z,4.10
2017-12-14T01:46:45.223Z,4.20
2017-12-14T01:49:14.110Z,4.20
2017-12-14T01:51:42.563Z,4.10
2017-12-14T01:54:10.995Z,4.20
2017-12-14T01:56:39.428Z,4.30
2017-12-14T01:59:07.902Z,4.40
2017-12-14T02:01:36.422Z,4.70
2017-12-14T02:04:04.852Z,4.90
2017-12-14T02:06:33.379Z,5.00
2017-12-14T02:09:03.039Z,4.80
2017-12-14T02:11:31.470Z,4.80
2017-12-14T02:14:00.074Z,4.70
2017-12-14T02:16:29.271Z,4.60
2017-12-14T02:18:58.492Z,4.60
2017-12-14T02:21:26.907Z,4.50
2017-12-14T02:23:55.320Z,4.60
2017-12-14T02:26:23.758Z,4.60
2017-12-14T02:28:52.179Z,4.50
2017-12-14T02:31:21.464Z,4.40
2017-12-14T02:33:49.970Z,4.40
2017-12-14T02:36:19.182Z,4.40
2017-12-14T02:38:48.391Z,4.20
2017-12-14T02:41:17.580Z,4.20
2017-12-14T02:43:46.774Z,4.10
2017-12-14T02:46:15.967Z,4.00
2017-12-14T02:48:44.400Z,3.90
2017-12-14T02:51:12.832Z,3.90
2017-12-14T02:53:42.151Z,3.90
2017-12-14T02:56:11.351Z,3.80
2017-12-14T02:58:40.531Z,3.80
2017-12-14T03:01:09.068Z,3.70
2017-12-14T03:03:36.811Z,3.90
2017-12-14T03:06:05.242Z,3.90
2017-12-14T03:08:33.004Z,4.20
2017-12-14T03:11:01.450Z,4.30
2017-12-14T03:13:30.021Z,4.40
2017-12-14T03:15:58.438Z,4.50
2017-12-14T03:18:26.865Z,4.50
2017-12-14T03:20:56.052Z,4.80
2017-12-14T03:23:24.494Z,4.80
2017-12-14T03:25:52.913Z,4.70
2017-12-14T03:28:21.355Z,4.80
2017-12-14T03:30:49.843Z,4.60
2017-12-14T03:33:18.296Z,4.50
2017-12-14T03:35:46.710Z,4.50
2017-12-14T03:38:15.143Z,4.50
2017-12-14T03:40:44.328Z,4.50
2017-12-14T03:43:13.530Z,4.30
2017-12-14T03:45:42.719Z,4.20
2017-12-14T03:48:11.147Z,4.20
2017-12-14T03:50:39.583Z,4.30
2017-12-14T03:53:08.132Z,4.30
2017-12-14T03:55:36.550Z,4.20
2017-12-14T03:58:05.071Z,4.40
2017-12-14T04:00:33.367Z,4.50
2017-12-14T04:03:01.789Z,4.60
2017-12-14T04:05:30.273Z,4.60
2017-12-14T04:07:58.807Z,4.60
2017-12-14T04:10:27.244Z,4.60
2017-12-14T04:12:55.775Z,4.70
2017-12-14T04:15:23.698Z,4.60
2017-12-14T04:17:52.235Z,4.80
2017-12-14T04:20:19.986Z,4.80
2017-12-14T04:22:48.105Z,4.90
2017-12-14T04:25:16.195Z,5.00
2017-12-14T04:27:45.075Z,4.70
2017-12-14T04:30:13.779Z,4.60
2017-12-14T04:32:42.672Z,4.00
2017-12-14T04:35:11.192Z,3.90
2017-12-14T04:37:39.298Z,3.80
2017-12-14T04:40:07.694Z,4.00
2017-12-14T04:42:36.059Z,3.80
2017-12-14T04:45:04.151Z,3.80
2017-12-14T04:47:33.443Z,3.60
2017-12-14T04:50:01.792Z,3.50
2017-12-14T04:52:30.611Z,3.40
2017-12-14T04:54:58.990Z,3.40
2017-12-14T04:57:27.386Z,3.40
2017-12-14T04:59:55.817Z,3.50
2017-12-14T05:02:24.944Z,3.50
2017-12-14T05:04:53.351Z,3.40
2017-12-14T05:07:22.046Z,3.40
2017-12-14T05:09:49.827Z,3.40
2017-12-14T05:12:17.855Z,3.40
2017-12-14T05:14:45.983Z,3.30
2017-12-14T05:17:14.038Z,3.30
2017-12-14T05:19:42.542Z,3.30
2017-12-14T05:22:10.315Z,3.30
2017-12-14T05:24:39.451Z,3.40
2017-12-14T05:27:07.515Z,3.40
2017-12-14T05:29:36.022Z,3.40
2017-12-14T05:32:04.863Z,3.40
2017-12-14T05:34:33.314Z,3.30
2017-12-14T05:37:01.677Z,3.30
2017-12-14T05:39:29.711Z,3.20
2017-12-14T05:41:57.495Z,3.30
2017-12-14T05:44:26.211Z,3.10
2017-12-14T05:46:54.912Z,2.90
2017-12-14T05:49:23.471Z,3.00
2017-12-14T05:51:51.891Z,3.00
2017-12-14T05:54:20.694Z,3.00
2017-12-14T05:56:49.518Z,2.90
2017-12-14T05:59:18.655Z,2.90
2017-12-14T06:01:46.819Z,2.90
2017-12-14T06:04:14.863Z,2.80
2017-12-14T06:06:42.887Z,2.70
2017-12-14T06:09:11.847Z,2.90
2017-12-14T06:11:40.467Z,2.80
2017-12-14T06:14:09.258Z,2.70
2017-12-14T06:16:38.199Z,2.70
2017-12-14T06:19:06.542Z,2.60
2017-12-14T06:21:34.938Z,2.80
2017-12-14T06:24:02.959Z,2.60
2017-12-14T06:26:31.361Z,2.60
2017-12-14T06:29:00.172Z,2.50
2017-12-14T06:31:29.358Z,2.50
2017-12-14T06:33:58.142Z,2.40
2017-12-14T06:36:27.070Z,2.40
2017-12-14T06:38:55.218Z,2.40
2017-12-14T06:41:24.024Z,2.50
2017-12-14T06:43:52.491Z,2.40
2017-12-14T06:46:21.290Z,2.40
2017-12-14T06:48:49.314Z,2.40
2017-12-14T06:51:17.930Z,2.40
2017-12-14T06:53:46.826Z,2.20
2017-12-14T06:56:15.699Z,2.30
2017-12-14T06:58:44.116Z,2.20
2017-12-14T07:01:12.639Z,2.50
2017-12-14T07:03:40.793Z,2.50
2017-12-14T07:06:08.825Z,2.50
2017-12-14T07:08:37.631Z,2.50
2017-12-14T07:11:05.998Z,2.40
2017-12-14T07:13:34.823Z,2.50
2017-12-14T07:16:02.847Z,2.50
2017-12-14T07:18:30.898Z,2.50
2017-12-14T07:20:59.352Z,2.30
2017-12-14T07:23:27.377Z,2.40
2017-12-14T07:25:56.690Z,2.60
2017-12-14T07:28:25.815Z,2.40
2017-12-14T07:30:53.862Z,2.30
2017-12-14T07:33:22.667Z,2.20
2017-12-14T07:35:50.802Z,2.20
2017-12-14T07:38:19.590Z,2.40
2017-12-14T07:40:48.306Z,2.30
2017-12-14T07:43:24.125Z,2.50
2017-12-14T07:46:05.126Z,2.50
2017-12-14T07:48:33.930Z,2.40
2017-12-14T07:51:01.976Z,2.40
2017-12-14T07:53:30.023Z,2.50
2017-12-14T07:55:58.066Z,2.70
2017-12-14T07:58:26.239Z,2.60
2017-12-14T08:00:54.734Z,2.50
2017-12-14T08:03:23.094Z,2.60
2017-12-14T08:05:51.471Z,2.60
2017-12-14T08:08:19.842Z,2.50
2017-12-14T08:10:48.975Z,2.60
2017-12-14T08:13:17.321Z,2.50
2017-12-14T08:15:45.563Z,2.80
2017-12-14T08:18:13.940Z,2.90
2017-12-14T08:20:42.401Z,2.80
2017-12-14T08:23:11.110Z,2.90
2017-12-14T08:25:39.815Z,2.90
2017-12-14T08:28:08.631Z,3.20
2017-12-14T08:30:37.327Z,3.20
2017-12-14T08:33:06.035Z,3.30
2017-12-14T08:35:34.527Z,3.20
2017-12-14T08:38:03.222Z,3.30
2017-12-14T08:40:31.926Z,3.30
2017-12-14T08:43:00.744Z,3.20
2017-12-14T08:45:28.830Z,3.20
2017-12-14T08:47:56.622Z,3.20
2017-12-14T08:50:24.655Z,3.30
2017-12-14T08:52:53.466Z,3.40
2017-12-14T08:55:21.850Z,3.30
2017-12-14T08:57:49.640Z,3.40
2017-12-14T09:00:17.762Z,3.60
2017-12-14T09:02:45.862Z,3.60
2017-12-14T09:05:14.002Z,3.60
2017-12-14T09:07:43.304Z,3.80
2017-12-14T09:10:12.426Z,3.80
2017-12-14T09:12:40.575Z,3.70
2017-12-14T09:15:09.375Z,3.90
2017-12-14T09:17:38.590Z,4.00
2017-12-14T09:20:07.261Z,3.90
2017-12-14T09:22:35.370Z,4.00
2017-12-14T09:25:03.463Z,4.10
2017-12-14T09:27:32.000Z,4.00
2017-12-14T09:29:59.851Z,4.00
2017-12-14T09:32:27.958Z,3.90
2017-12-14T09:34:56.707Z,3.90
2017-12-14T09:37:24.842Z,4.00
2017-12-14T09:39:52.953Z,4.10
2017-12-14T09:42:21.042Z,4.20
2017-12-14T09:44:49.473Z,4.30
2017-12-14T09:47:18.682Z,4.40
2017-12-14T09:49:47.543Z,4.40
2017-12-14T09:52:16.815Z,4.40
2017-12-14T09:54:44.899Z,4.40
2017-12-14T09:57:12.675Z,4.50
2017-12-14T09:59:40.450Z,4.60
2017-12-14T10:02:08.255Z,4.60
2017-12-14T10:04:37.430Z,4.70
2017-12-14T10:07:05.729Z,4.60
2017-12-14T10:09:34.588Z,4.80
2017-12-14T10:12:02.351Z,4.70
2017-12-14T10:14:30.187Z,4.70
2017-12-14T10:16:57.944Z,4.80
2017-12-14T10:19:25.713Z,4.80
2017-12-14T10:21:53.503Z,4.70
2017-12-14T10:24:21.693Z,4.70
2017-12-14T10:26:49.459Z,4.80
2017-12-14T10:29:17.242Z,4.90
2017-12-14T10:31:46.438Z,4.90
2017-12-14T10:34:14.638Z,4.80
2017-12-14T10:36:43.072Z,5.00
2017-12-14T10:39:11.115Z,5.00
2017-12-14T10:41:38.888Z,5.00
2017-12-14T10:44:06.659Z,5.00
2017-12-14T10:46:34.851Z,4.90
2017-12-14T10:49:02.962Z,5.00
2017-12-14T10:51:31.839Z,4.90
2017-12-14T10:53:59.625Z,4.80
2017-12-14T10:56:27.902Z,4.90
2017-12-14T10:58:55.722Z,4.90
2017-12-14T11:01:29.427Z,4.90
2017-12-14T11:03:57.187Z,4.90
2017-12-14T11:06:25.075Z,4.90
2017-12-14T11:08:53.116Z,4.90
2017-12-14T11:11:20.931Z,5.00
2017-12-14T11:13:49.017Z,5.00
2017-12-14T11:16:17.633Z,5.10
2017-12-14T11:18:45.399Z,5.10
2017-12-14T11:21:13.171Z,5.10
2017-12-14T11:23:41.614Z,5.20
2017-12-14T11:26:10.555Z,5.40
2017-12-14T11:28:38.680Z,5.30
2017-12-14T11:31:07.265Z,5.40
2017-12-14T11:33:35.827Z,5.40
2017-12-14T11:36:03.753Z,5.40
2017-12-14T11:38:32.047Z,5.40
2017-12-14T11:41:00.200Z,5.50
2017-12-14T11:43:27.989Z,5.60
2017-12-14T11:45:56.099Z,5.70
2017-12-14T11:48:24.026Z,5.70
2017-12-14T11:50:52.298Z,5.70
2017-12-14T11:53:20.953Z,5.60
2017-12-14T11:55:49.948Z,5.80
2017-12-14T11:58:19.076Z,5.80
2017-12-14T12:00:47.202Z,5.70
2017-12-14T12:03:14.995Z,5.80
2017-12-14T12:05:43.119Z,5.70
2017-12-14T12:08:10.927Z,5.70
2017-12-14T12:10:39.333Z,5.60
2017-12-14T12:13:07.443Z,5.50
2017-12-14T12:15:35.490Z,5.50
2017-12-14T12:18:04.290Z,5.70
2017-12-14T12:20:32.502Z,5.60
2017-12-14T12:23:00.339Z,5.80
2017-12-14T12:25:28.439Z,5.90
2017-12-14T12:27:56.553Z,6.00
2017-12-14T12:30:24.894Z,5.90
2017-12-14T12:32:53.646Z,5.90
2017-12-14T12:35:21.419Z,5.90
2017-12-14T12:37:49.506Z,6.00
2017-12-14T12:40:17.270Z,6.20
2017-12-14T12:42:45.371Z,6.30
2017-12-14T12:45:13.786Z,6.40
2017-12-14T12:47:41.538Z,6.30
2017-12-14T12:50:09.646Z,6.40
2017-12-14T12:52:37.699Z,6.30
2017-12-14T12:55:05.466Z,6.40
2017-12-14T12:57:33.970Z,6.40
2017-12-14T13:00:02.552Z,5.90
2017-12-14T13:02:31.128Z,5.90
2017-12-14T13:04:58.904Z,5.90
2017-12-14T13:07:27.299Z,5.80
2017-12-14T13:09:55.128Z,5.80
2017-12-14T13:12:22.889Z,5.80
2017-12-14T13:14:50.999Z,5.80
2017-12-14T13:17:19.117Z,5.70
2017-12-14T13:19:47.639Z,5.50
2017-12-14T13:22:15.494Z,5.50
2017-12-14T13:24:43.929Z,5.40
2017-12-14T13:27:12.008Z,5.30
2017-12-14T13:29:40.439Z,5.30
2017-12-14T13:32:08.964Z,5.30
2017-12-14T13:34:37.407Z,5.40
2017-12-14T13:37:05.816Z,5.50
2017-12-14T13:39:34.252Z,5.40
2017-12-14T13:42:02.679Z,5.40
2017-12-14T13:44:30.827Z,5.40
2017-12-14T13:46:59.249Z,5.40
2017-12-14T13:49:27.170Z,5.30
2017-12-14T13:51:55.650Z,5.30
2017-12-14T13:54:23.752Z,5.20
2017-12-14T13:56:54.103Z,5.10
2017-12-14T13:59:22.625Z,5.10
2017-12-14T14:01:50.806Z,5.10
2017-12-14T14:04:18.569Z,5.10
2017-12-14T14:06:48.195Z,5.00
2017-12-14T14:09:16.728Z,4.90
2017-12-14T14:11:45.987Z,4.90
2017-12-14T14:14:14.403Z,4.90
2017-12-14T14:16:43.865Z,4.90
2017-12-14T14:19:11.951Z,4.90
2017-12-14T14:21:40.531Z,4.90
2017-12-14T14:24:08.602Z,4.80
2017-12-14T14:26:37.936Z,4.70
2017-12-14T14:29:06.070Z,4.60
2017-12-14T14:31:34.244Z,4.60
2017-12-14T14:34:02.003Z,4.60
2017-12-14T14:36:29.836Z,4.70
2017-12-14T14:38:59.039Z,4.60
2017-12-14T14:41:28.235Z,4.50
2017-12-14T14:43:57.516Z,4.40
2017-12-14T14:46:25.779Z,4.40
2017-12-14T14:48:53.567Z,4.50
2017-12-14T14:51:22.106Z,4.50
2017-12-14T14:53:51.403Z,4.40
2017-12-14T14:56:19.888Z,4.30
2017-12-14T14:58:48.335Z,4.30
2017-12-14T15:01:17.570Z,4.30
2017-12-14T15:03:46.015Z,4.20
2017-12-14T15:06:15.227Z,4.20
2017-12-14T15:08:43.852Z,4.20
2017-12-14T15:11:12.513Z,4.20
2017-12-14T15:13:41.405Z,4.10
2017-12-14T15:16:10.194Z,4.00
2017-12-14T15:18:39.088Z,4.10
2017-12-14T15:21:07.981Z,4.10
2017-12-14T15:23:36.871Z,4.00
2017-12-14T15:26:05.751Z,3.90
2017-12-14T15:28:34.655Z,4.00
2017-12-14T15:31:03.549Z,4.00
2017-12-14T15:33:32.345Z,4.00
2017-12-14T15:36:00.981Z,4.10
2017-12-14T15:38:29.577Z,3.90
2017-12-14T15:40:58.455Z,4.00
2017-12-14T15:43:27.649Z,4.10
2017-12-14T15:45:56.084Z,4.10
2017-12-14T15:48:24.507Z,3.90
2017-12-14T15:50:53.072Z,3.80
2017-12-14T15:53:21.531Z,3.80
2017-12-14T15:55:49.966Z,3.80
2017-12-14T15:58:18.403Z,3.80
2017-12-14T16:00:46.844Z,3.90
2017-12-14T16:03:16.074Z,3.80
2017-12-14T16:05:44.515Z,3.80
2017-12-14T16:08:13.706Z,3.60
2017-12-14T16:10:42.178Z,3.60
2017-12-14T16:13:10.692Z,3.80
2017-12-14T16:15:40.148Z,3.70
2017-12-14T16:18:08.618Z,3.70
2017-12-14T16:20:37.038Z,3.80
2017-12-14T16:23:05.484Z,4.00
2017-12-14T16:25:34.052Z,3.80
2017-12-14T16:28:02.527Z,3.60
2017-12-14T16:30:31.062Z,3.50
2017-12-14T16:32:59.496Z,3.60
2017-12-14T16:35:28.051Z,3.50
2017-12-14T16:37:57.255Z,3.20
2017-12-14T16:40:25.730Z,3.20
2017-12-14T16:42:55.106Z,3.30
2017-12-14T16:45:23.532Z,3.20
2017-12-14T16:47:52.214Z,3.20
2017-12-14T16:50:21.452Z,3.30
2017-12-14T16:52:49.718Z,3.20
2017-12-14T16:55:19.238Z,3.30
2017-12-14T16:57:47.667Z,3.20
2017-12-14T17:00:16.399Z,3.20
2017-12-14T17:02:44.866Z,3.20
2017-12-14T17:05:13.355Z,3.30
2017-12-14T17:07:41.777Z,3.30
2017-12-14T17:10:10.343Z,3.20
2017-12-14T17:12:38.926Z,3.30
2017-12-14T17:15:07.455Z,3.20
2017-12-14T17:17:36.171Z,3.30
2017-12-14T17:20:04.765Z,3.20
2017-12-14T17:22:33.189Z,3.20
2017-12-14T17:25:01.783Z,3.20
2017-12-14T17:27:30.330Z,3.20
2017-12-14T17:29:59.051Z,3.20
2017-12-14T17:32:27.475Z,3.10
2017-12-14T17:34:56.179Z,3.00
2017-12-14T17:37:24.773Z,3.00
2017-12-14T17:39:53.287Z,3.00
2017-12-14T17:42:21.743Z,3.10
2017-12-14T17:44:50.439Z,3.10
2017-12-14T17:47:18.880Z,3.20
2017-12-14T17:49:47.402Z,3.20
2017-12-14T17:52:15.889Z,3.30
2017-12-14T17:54:44.318Z,3.30
2017-12-14T17:57:12.775Z,3.30
2017-12-14T17:59:41.238Z,3.30
2017-12-14T18:02:10.747Z,3.40
2017-12-14T18:04:39.478Z,3.40
2017-12-14T18:07:07.938Z,3.40
2017-12-14T18:09:36.643Z,3.50
2017-12-14T18:12:05.377Z,3.40
2017-12-14T18:14:33.820Z,3.30
2017-12-14T18:17:02.298Z,3.50
2017-12-14T18:19:30.746Z,3.50
2017-12-14T18:21:59.467Z,3.50
2017-12-14T18:24:28.557Z,3.50
2017-12-14T18:26:57.784Z,3.50
2017-12-14T18:29:27.303Z,3.60
2017-12-14T18:31:55.759Z,3.60
2017-12-14T18:34:25.282Z,3.60
2017-12-14T18:36:54.200Z,3.50
2017-12-14T18:39:22.956Z,3.50
2017-12-14T18:41:52.447Z,3.60
2017-12-14T18:44:20.907Z,3.60
2017-12-14T18:46:49.618Z,3.60
2017-12-14T18:49:18.354Z,3.60
2017-12-14T18:51:47.069Z,3.50
2017-12-14T18:54:15.821Z,3.40
2017-12-14T18:56:44.286Z,3.40
2017-12-14T18:59:12.743Z,3.30
2017-12-14T19:01:40.795Z,3.30
2017-12-14T19:04:09.180Z,3.30
2017-12-14T19:06:37.556Z,3.20
2017-12-14T19:09:06.295Z,3.10
2017-12-14T19:11:34.096Z,3.20
2017-12-14T19:14:02.194Z,3.10
2017-12-14T19:16:30.275Z,3.00
2017-12-14T19:18:58.310Z,3.10
2017-12-14T19:21:26.091Z,2.90
2017-12-14T19:23:54.835Z,2.90
2017-12-14T19:26:23.968Z,3.00
2017-12-14T19:28:52.689Z,2.90
2017-12-14T19:31:21.080Z,2.90
2017-12-14T19:33:49.474Z,2.90
2017-12-14T19:36:17.622Z,2.90
2017-12-14T19:38:45.653Z,3.00
2017-12-14T19:41:13.881Z,3.00
2017-12-14T19:43:42.121Z,3.00
2017-12-14T19:46:10.328Z,3.10
2017-12-14T19:48:39.560Z,3.10
2017-12-14T19:51:08.003Z,3.00
2017-12-14T19:53:36.490Z,3.10
2017-12-14T19:56:05.187Z,3.10
2017-12-14T19:58:33.577Z,3.00
2017-12-14T20:01:03.064Z,3.20
2017-12-14T20:03:31.507Z,3.10
2017-12-14T20:05:59.953Z,3.20
2017-12-14T20:08:29.105Z,3.20
2017-12-14T20:10:58.350Z,3.20
2017-12-14T20:13:26.478Z,3.10
2017-12-14T20:15:55.189Z,3.20
2017-12-14T20:18:24.778Z,3.20
2017-12-14T20:20:52.884Z,3.10
2017-12-14T20:23:21.307Z,3.30
2017-12-14T20:25:49.799Z,3.30
2017-12-14T20:28:18.322Z,3.30
2017-12-14T20:30:46.495Z,3.40
2017-12-14T20:33:15.426Z,3.50
2017-12-14T20:35:43.539Z,3.50
2017-12-14T20:38:11.698Z,3.50
2017-12-14T20:40:40.216Z,3.50
2017-12-14T20:43:08.514Z,3.50
2017-12-14T20:45:36.607Z,3.60
2017-12-14T20:48:05.067Z,3.60
2017-12-14T20:50:33.190Z,3.60
2017-12-14T20:53:01.322Z,3.60
2017-12-14T20:55:29.766Z,3.60
2017-12-14T20:57:58.701Z,3.60
2017-12-14T21:00:26.847Z,3.60
2017-12-14T21:02:55.228Z,3.60
2017-12-14T21:05:23.683Z,3.60
2017-12-14T21:07:52.275Z,3.60
2017-12-14T21:10:21.016Z,3.50
2017-12-14T21:12:49.451Z,3.50
2017-12-14T21:15:18.665Z,3.50
2017-12-14T21:17:47.893Z,3.40
2017-12-14T21:20:16.483Z,3.30
2017-12-14T21:22:44.807Z,3.30
2017-12-14T21:25:13.590Z,3.30
2017-12-14T21:27:42.214Z,3.40
2017-12-14T21:30:10.368Z,3.30
2017-12-14T21:32:39.061Z,3.20
2017-12-14T21:35:07.558Z,3.20
2017-12-14T21:37:36.142Z,3.30
2017-12-14T21:40:04.339Z,3.40
2017-12-14T21:42:32.797Z,3.40
2017-12-14T21:45:01.231Z,3.40
2017-12-14T21:47:29.330Z,3.40
2017-12-14T21:49:58.578Z,3.40
2017-12-14T21:52:27.007Z,3.40
2017-12-14T21:54:55.487Z,3.40
2017-12-14T21:57:24.024Z,3.30
2017-12-14T21:59:52.499Z,3.30
2017-12-14T22:02:22.035Z,3.30
2017-12-14T22:04:50.805Z,3.20
2017-12-14T22:07:19.252Z,3.20
2017-12-14T22:09:47.734Z,3.20
2017-12-14T22:12:16.927Z,3.00
2017-12-14T22:14:45.615Z,3.00
2017-12-14T22:17:14.971Z,3.10
2017-12-14T22:19:43.467Z,3.00
2017-12-14T22:22:12.071Z,3.10
2017-12-14T22:24:40.428Z,3.10
2017-12-14T22:27:08.950Z,3.00
2017-12-14T22:29:37.847Z,3.00
2017-12-14T22:32:06.016Z,3.00
2017-12-14T22:34:34.395Z,2.90
2017-12-14T22:37:03.614Z,2.90
2017-12-14T22:39:32.046Z,2.80
2017-12-14T22:42:00.388Z,2.80
2017-12-14T22:44:28.526Z,2.80
2017-12-14T22:46:57.259Z,2.70
2017-12-14T22:49:26.750Z,2.60
2017-12-14T22:51:55.582Z,2.50
2017-12-14T22:54:24.559Z,2.60
2017-12-14T22:56:54.052Z,2.70
2017-12-14T22:59:23.523Z,2.70
2017-12-14T23:01:52.374Z,2.70
2017-12-14T23:04:20.820Z,2.70
2017-12-14T23:06:49.524Z,2.80
2017-12-14T23:09:17.780Z,2.80
2017-12-14T23:11:47.346Z,2.90
2017-12-14T23:14:15.771Z,2.90
2017-12-14T23:16:45.268Z,3.10
2017-12-14T23:19:13.695Z,3.00
2017-12-14T23:21:42.146Z,3.10
2017-12-14T23:24:10.570Z,3.10
2017-12-14T23:26:39.015Z,3.10
2017-12-14T23:29:07.480Z,3.00
2017-12-14T23:31:35.926Z,3.00
2017-12-14T23:34:04.362Z,2.90
2017-12-14T23:36:32.838Z,3.00
2017-12-14T23:39:01.290Z,2.90
2017-12-14T23:41:30.467Z,2.90
2017-12-14T23:43:59.171Z,2.90
2017-12-14T23:46:28.572Z,2.90
2017-12-14T23:48:57.846Z,2.90
2017-12-14T23:51:26.191Z,2.80
2017-12-14T23:53:54.644Z,2.80
2017-12-14T23:56:23.332Z,2.80
2017-12-14T23:58:52.591Z,2.90
